Time;durP1;ratioP1;P1;durP2;ratioP2;P2;SDS_P1;SDS_P2;PMS_P1;PMS_P2;Temp;Humidity;BMP_temperature;BMP_pressure;BME280_temperature;BME280_humidity;BME280_pressure;Samples;Min_cycle;Max_cycle;Signal;HPM_P1;HPM_P2
2023/04/27 00:00:38;;;;;;;11.03;5.10;;;4.00;99.90;;;;;;5013385;28;20045;-70
2023/04/27 00:03:04;;;;;;;8.30;4.57;;;4.00;99.90;;;;;;5016110;28;20379;-71
2023/04/27 00:05:37;;;;;;;8.63;4.90;;;4.00;99.90;;;;;;5013727;28;20407;-70
2023/04/27 00:08:04;;;;;;;11.13;5.00;;;3.90;99.90;;;;;;4996434;28;20053;-70
2023/04/27 00:10:30;;;;;;;;;;;3.90;99.90;;;;;;5088166;22;20544;-72
2023/04/27 00:12:55;;;;;;;9.00;4.40;;;3.90;99.90;;;;;;5005500;28;19921;-72
2023/04/27 00:15:21;;;;;;;10.40;4.87;;;3.80;99.90;;;;;;4994186;28;20065;-72
2023/04/27 00:17:47;;;;;;;9.88;4.88;;;3.80;99.90;;;;;;4992089;28;20081;-72
2023/04/27 00:20:13;;;;;;;7.43;3.60;;;3.90;99.90;;;;;;4996930;28;20041;-72
2023/04/27 00:22:39;;;;;;;7.23;3.57;;;3.80;99.90;;;;;;5000240;28;20038;-72
2023/04/27 00:25:05;;;;;;;8.00;3.85;;;3.80;99.90;;;;;;5002488;28;20041;-72
2023/04/27 00:27:31;;;;;;;8.10;4.15;;;3.80;99.90;;;;;;4997449;28;20072;-72
2023/04/27 00:29:56;;;;;;;9.93;3.63;;;3.80;99.90;;;;;;4997915;28;20505;-72
2023/04/27 00:32:22;;;;;;;9.43;3.70;;;3.80;99.90;;;;;;5004959;28;20041;-72
2023/04/27 00:34:47;;;;;;;8.47;4.33;;;3.80;99.90;;;;;;5006280;28;20041;-72
2023/04/27 00:37:15;;;;;;;7.60;4.70;;;3.80;99.90;;;;;;5021696;28;20052;-72
2023/04/27 00:39:41;;;;;;;5.85;3.60;;;3.80;99.90;;;;;;4979927;28;20041;-73
2023/04/27 00:42:13;;;;;;;7.30;3.67;;;3.80;99.90;;;;;;5001062;28;20478;-72
2023/04/27 00:44:38;;;;;;;11.55;4.65;;;3.80;99.90;;;;;;4976212;28;20123;-72
2023/04/27 00:47:04;;;;;;;11.80;4.30;;;3.80;99.90;;;;;;5017183;28;20391;-72
2023/04/27 00:49:31;;;;;;;9.10;4.97;;;3.80;99.90;;;;;;4984542;28;20052;-72
2023/04/27 00:51:56;;;;;;;6.95;3.70;;;3.80;99.90;;;;;;5003267;28;20326;-72
2023/04/27 00:54:22;;;;;;;9.77;4.33;;;3.70;99.90;;;;;;5002124;28;20693;-72
2023/04/27 00:56:52;;;;;;;7.85;4.60;;;3.70;99.90;;;;;;4976463;28;20045;-72
2023/04/27 00:59:18;;;;;;;9.93;3.72;;;3.70;99.90;;;;;;4996331;28;20078;-72
2023/04/27 01:01:48;;;;;;;7.70;4.07;;;3.60;99.90;;;;;;4981756;28;20041;-72
2023/04/27 01:04:15;;;;;;;7.47;3.85;;;3.60;99.90;;;;;;5001843;28;20067;-72
2023/04/27 01:06:41;;;;;;;8.75;3.90;;;3.60;99.90;;;;;;4996699;28;20097;-73
2023/04/27 01:09:08;;;;;;;10.77;4.00;;;3.50;99.90;;;;;;5004859;28;20273;-72
2023/04/27 01:11:34;;;;;;;8.90;4.93;;;3.50;99.90;;;;;;5003833;28;20281;-72
2023/04/27 01:14:04;;;;;;;8.35;4.13;;;3.50;99.90;;;;;;4996234;28;20046;-72
2023/04/27 01:16:34;;;;;;;8.77;4.20;;;3.50;99.90;;;;;;5001081;28;20072;-72
2023/04/27 01:19:00;;;;;;;8.93;4.10;;;3.50;99.90;;;;;;4983296;28;20045;-72
2023/04/27 01:21:26;;;;;;;8.63;4.17;;;3.50;99.90;;;;;;5000868;28;20049;-72
2023/04/27 01:23:52;;;;;;;6.75;3.92;;;3.50;99.90;;;;;;4996028;28;20396;-72
2023/04/27 01:26:18;;;;;;;8.13;3.80;;;3.40;99.90;;;;;;5004084;28;20052;-72
2023/04/27 01:28:44;;;;;;;6.17;3.53;;;3.40;99.90;;;;;;4997935;28;20042;-72
2023/04/27 01:31:11;;;;;;;7.40;3.72;;;3.40;99.90;;;;;;4988530;28;20096;-72
2023/04/27 01:33:37;;;;;;;8.65;5.07;;;3.40;99.90;;;;;;5005006;28;20546;-72
2023/04/27 01:36:03;;;;;;;14.63;4.57;;;3.40;99.90;;;;;;5006382;28;20050;-73
2023/04/27 01:38:31;;;;;;;8.35;3.78;;;3.30;99.90;;;;;;4995910;28;20100;-72
2023/04/27 01:41:00;;;;;;;7.47;3.67;;;3.30;99.90;;;;;;4989116;28;20053;-72
2023/04/27 01:43:42;;;;;;;6.68;3.70;;;3.30;99.90;;;;;;5010749;28;20049;-72
2023/04/27 01:46:11;;;;;;;8.88;3.25;;;3.30;99.90;;;;;;5025420;28;20045;-72
2023/04/27 01:48:38;;;;;;;13.20;4.00;;;3.30;99.90;;;;;;4998050;28;20037;-72
2023/04/27 01:51:04;;;;;;;8.73;4.53;;;3.30;99.90;;;;;;5026386;28;20077;-72
2023/04/27 01:53:30;;;;;;;5.27;3.23;;;3.30;99.90;;;;;;5001827;28;20065;-72
2023/04/27 01:55:59;;;;;;;13.83;4.80;;;3.30;99.90;;;;;;5019743;28;20041;-72
2023/04/27 01:58:25;;;;;;;10.38;4.10;;;3.30;99.90;;;;;;5002498;28;20296;-72
2023/04/27 02:00:51;;;;;;;8.88;4.28;;;3.30;99.90;;;;;;5009282;28;20618;-72
2023/04/27 02:03:16;;;;;;;10.97;4.60;;;3.30;99.90;;;;;;5004632;28;20053;-72
2023/04/27 02:05:42;;;;;;;8.07;3.90;;;3.30;99.90;;;;;;5007807;28;20095;-73
2023/04/27 02:08:08;;;;;;;7.60;4.20;;;3.40;99.90;;;;;;5010284;28;20528;-72
2023/04/27 02:10:35;;;;;;;7.67;3.67;;;3.40;99.90;;;;;;5004322;28;20059;-72
2023/04/27 02:13:01;;;;;;;;;;;3.40;99.90;;;;;;5001254;28;20286;-72
2023/04/27 02:15:26;;;;;;;10.90;4.53;;;3.40;99.90;;;;;;4998148;28;20599;-72
2023/04/27 02:17:52;;;;;;;6.93;3.80;;;3.40;99.90;;;;;;4989553;28;20057;-72
2023/04/27 02:20:18;;;;;;;9.80;4.20;;;3.40;99.90;;;;;;5008608;28;20052;-72
2023/04/27 02:22:44;;;;;;;10.73;4.63;;;3.40;99.90;;;;;;5012858;28;20041;-75
2023/04/27 02:25:10;;;;;;;11.15;4.55;;;3.40;99.90;;;;;;5002775;28;20041;-72
2023/04/27 02:27:37;;;;;;;11.57;4.35;;;3.50;99.90;;;;;;5011741;28;20051;-71
2023/04/27 02:30:05;;;;;;;10.60;4.35;;;3.40;99.90;;;;;;5000204;28;20143;-73
2023/04/27 02:32:31;;;;;;;10.40;4.63;;;3.40;99.90;;;;;;5004256;28;20525;-73
2023/04/27 02:34:57;;;;;;;10.07;5.05;;;3.40;99.90;;;;;;5014113;28;20415;-75
2023/04/27 02:37:23;;;;;;;8.73;4.30;;;3.50;99.90;;;;;;5006224;28;20057;-71
2023/04/27 02:39:49;;;;;;;10.60;4.60;;;3.50;99.90;;;;;;5011620;28;20037;-72
2023/04/27 02:42:15;;;;;;;11.10;4.17;;;3.50;99.90;;;;;;4992880;28;20041;-73
2023/04/27 02:44:41;;;;;;;9.50;4.40;;;3.50;99.90;;;;;;5008018;28;20410;-74
2023/04/27 02:47:07;;;;;;;8.75;3.90;;;3.50;99.90;;;;;;5003888;28;20048;-79
2023/04/27 02:49:32;;;;;;;13.20;3.93;;;3.50;99.90;;;;;;5003774;28;20046;-72
2023/04/27 02:51:58;;;;;;;9.47;4.03;;;3.50;99.90;;;;;;5002264;28;20107;-71
2023/04/27 02:54:24;;;;;;;7.43;3.87;;;3.60;99.90;;;;;;5019354;28;20033;-71
2023/04/27 02:56:50;;;;;;;10.38;4.20;;;3.60;99.90;;;;;;5005070;28;20096;-72
2023/04/27 02:59:16;;;;;;;10.20;3.58;;;3.60;99.90;;;;;;5001997;28;20046;-72
2023/04/27 03:01:41;;;;;;;6.73;3.40;;;3.60;99.90;;;;;;5005303;28;20646;-72
2023/04/27 03:04:07;;;;;;;6.67;3.50;;;3.60;99.90;;;;;;5007196;28;20084;-72
2023/04/27 03:06:32;;;;;;;6.63;3.53;;;3.60;99.90;;;;;;5013343;28;20499;-72
2023/04/27 03:08:58;;;;;;;14.23;3.50;;;3.70;99.90;;;;;;5004996;28;20045;-72
2023/04/27 03:11:26;;;;;;;6.37;3.30;;;3.70;99.90;;;;;;5005256;28;20495;-72
2023/04/27 03:13:52;;;;;;;7.15;3.70;;;3.70;99.90;;;;;;5010651;28;20568;-72
2023/04/27 03:16:17;;;;;;;7.40;3.70;;;3.80;99.90;;;;;;5004460;28;20392;-72
2023/04/27 03:18:43;;;;;;;6.00;3.47;;;3.80;99.90;;;;;;5000527;28;20076;-72
2023/04/27 03:21:10;;;;;;;6.17;3.47;;;3.80;99.90;;;;;;4995605;28;20121;-72
2023/04/27 03:23:36;;;;;;;9.65;3.13;;;3.80;99.90;;;;;;5016858;28;20046;-72
2023/04/27 03:26:09;;;;;;;8.85;3.40;;;3.80;99.90;;;;;;5006083;28;20442;-72
2023/04/27 03:28:35;;;;;;;8.80;3.40;;;3.80;99.90;;;;;;5003975;28;20058;-71
2023/04/27 03:31:08;;;;;;;12.90;3.90;;;3.80;99.90;;;;;;4994604;28;20120;-72
2023/04/27 03:33:35;;;;;;;9.82;3.35;;;3.80;99.90;;;;;;4996731;28;20081;-71
2023/04/27 03:36:01;;;;;;;6.95;3.63;;;3.70;99.90;;;;;;5001746;28;20099;-72
2023/04/27 03:38:27;;;;;;;6.18;3.45;;;3.70;99.90;;;;;;5018628;28;20045;-72
2023/04/27 03:40:53;;;;;;;14.30;3.60;;;3.60;99.90;;;;;;5002591;28;20067;-72
2023/04/27 03:43:19;;;;;;;10.35;3.88;;;3.60;99.90;;;;;;5004285;28;20415;-71
2023/04/27 03:45:48;;;;;;;9.95;3.63;;;3.60;99.90;;;;;;5002926;28;20116;-72
2023/04/27 03:48:15;;;;;;;10.37;3.20;;;3.50;99.90;;;;;;4991089;28;20475;-72
2023/04/27 03:50:41;;;;;;;7.32;3.42;;;3.50;99.90;;;;;;5005597;28;20068;-72
2023/04/27 03:53:07;;;;;;;7.20;3.63;;;3.50;99.90;;;;;;4997628;28;20044;-72
2023/04/27 03:55:33;;;;;;;7.32;3.55;;;3.40;99.90;;;;;;5004356;28;20055;-72
2023/04/27 03:57:59;;;;;;;4.68;2.60;;;3.40;99.90;;;;;;5004915;28;20050;-72
2023/04/27 04:00:24;;;;;;;6.60;2.90;;;3.40;99.90;;;;;;5005142;28;20120;-72
2023/04/27 04:02:51;;;;;;;4.90;2.90;;;3.30;99.90;;;;;;5011958;28;20049;-71
2023/04/27 04:05:17;;;;;;;7.03;3.53;;;3.30;99.90;;;;;;5005342;28;20100;-72
2023/04/27 04:07:43;;;;;;;7.60;4.15;;;3.30;99.90;;;;;;4999683;28;20319;-71
2023/04/27 04:10:09;;;;;;;6.87;2.90;;;3.20;99.90;;;;;;5005403;28;20076;-72
2023/04/27 04:12:35;;;;;;;17.65;4.85;;;3.20;99.90;;;;;;4995193;28;20041;-72
2023/04/27 04:15:02;;;;;;;9.40;4.00;;;3.10;99.90;;;;;;5024555;28;20045;-71
2023/04/27 04:17:28;;;;;;;12.15;4.53;;;3.10;99.90;;;;;;5004713;28;20045;-72
2023/04/27 04:19:53;;;;;;;8.93;4.60;;;3.10;99.90;;;;;;5002038;28;20048;-72
2023/04/27 04:22:19;;;;;;;10.20;4.80;;;3.10;99.90;;;;;;4999932;28;20557;-72
2023/04/27 04:24:45;;;;;;;8.20;4.17;;;3.00;99.90;;;;;;5008834;28;20125;-72
2023/04/27 04:27:10;;;;;;;12.53;4.27;;;3.00;99.90;;;;;;5003252;28;20037;-72
2023/04/27 04:29:37;;;;;;;6.83;3.40;;;2.90;99.90;;;;;;4994054;28;20033;-72
2023/04/27 04:32:03;;;;;;;10.13;3.38;;;2.90;99.90;;;;;;4995103;28;20052;-71
2023/04/27 04:34:29;;;;;;;8.75;3.13;;;2.90;99.90;;;;;;4999593;28;20091;-72
2023/04/27 04:36:56;;;;;;;6.43;3.33;;;2.90;99.90;;;;;;5010112;28;20068;-72
2023/04/27 04:39:29;;;;;;;7.78;3.05;;;2.90;99.90;;;;;;5002614;28;20088;-72
2023/04/27 04:41:54;;;;;;;5.72;2.90;;;2.90;99.90;;;;;;5003166;28;20085;-72
2023/04/27 04:44:20;;;;;;;7.63;3.27;;;2.90;99.90;;;;;;5001716;28;20103;-72
2023/04/27 04:46:46;;;;;;;8.77;3.83;;;2.80;99.90;;;;;;5004768;28;20049;-72
2023/04/27 04:49:12;;;;;;;5.60;3.27;;;2.80;99.90;;;;;;4999675;28;20312;-72
2023/04/27 04:51:42;;;;;;;8.77;3.10;;;2.80;99.90;;;;;;5002125;28;20573;-72
2023/04/27 04:54:10;;;;;;;4.68;2.67;;;2.80;99.90;;;;;;4995778;28;20049;-72
2023/04/27 04:56:39;;;;;;;7.43;3.63;;;2.90;99.90;;;;;;5000889;28;20526;-72
2023/04/27 04:59:07;;;;;;;10.02;3.60;;;2.90;99.90;;;;;;5000270;28;20315;-72
2023/04/27 05:01:32;;;;;;;5.47;3.10;;;2.90;99.90;;;;;;5008235;28;20384;-75
2023/04/27 05:03:58;;;;;;;7.80;4.20;;;3.00;99.90;;;;;;5005744;28;20102;-75
2023/04/27 05:06:25;;;;;;;7.72;3.10;;;3.00;99.90;;;;;;5001790;28;20045;-75
2023/04/27 05:08:50;;;;;;;5.63;2.90;;;3.00;99.90;;;;;;5003647;28;20423;-75
2023/04/27 05:11:16;;;;;;;4.83;2.73;;;3.10;99.90;;;;;;5002555;28;20053;-75
2023/04/27 05:13:42;;;;;;;6.97;3.07;;;3.00;99.90;;;;;;4997948;28;20133;-75
2023/04/27 05:16:08;;;;;;;6.67;3.20;;;3.10;99.90;;;;;;4999563;28;20104;-75
2023/04/27 05:18:34;;;;;;;8.48;3.40;;;3.10;99.90;;;;;;4998582;28;20385;-75
2023/04/27 05:21:00;;;;;;;13.75;3.65;;;3.20;99.90;;;;;;5002042;28;20787;-75
2023/04/27 05:23:26;;;;;;;6.37;3.17;;;3.10;99.90;;;;;;5004773;28;20045;-75
2023/04/27 05:25:52;;;;;;;6.60;3.35;;;3.20;99.90;;;;;;5010235;28;20049;-75
2023/04/27 05:28:18;;;;;;;4.78;2.63;;;3.20;99.90;;;;;;4993808;28;20314;-75
2023/04/27 05:30:43;;;;;;;5.73;3.10;;;3.30;99.90;;;;;;4996660;28;20125;-75
2023/04/27 05:33:09;;;;;;;10.37;3.07;;;3.30;99.90;;;;;;4997913;28;20482;-75
2023/04/27 05:35:34;;;;;;;6.97;3.10;;;3.40;99.90;;;;;;4991601;28;20047;-75
2023/04/27 05:38:01;;;;;;;6.27;2.97;;;3.50;99.90;;;;;;4996195;28;20735;-75
2023/04/27 05:40:27;;;;;;;9.52;3.30;;;3.50;99.90;;;;;;5022620;28;20039;-75
2023/04/27 05:42:55;;;;;;;5.43;3.08;;;3.50;99.90;;;;;;5006134;28;20056;-75
2023/04/27 05:45:23;;;;;;;6.15;3.08;;;3.60;99.90;;;;;;5001533;28;21502;-75
2023/04/27 05:47:51;;;;;;;6.68;3.08;;;3.60;99.90;;;;;;5002362;28;20519;-75
2023/04/27 05:50:17;;;;;;;8.95;3.17;;;3.70;99.90;;;;;;5003651;28;20411;-75
2023/04/27 05:52:42;;;;;;;8.10;3.80;;;3.80;99.90;;;;;;5004149;28;20059;-75
2023/04/27 05:55:10;;;;;;;10.50;3.08;;;3.80;99.90;;;;;;5002109;28;20037;-75
2023/04/27 05:57:38;;;;;;;6.83;3.20;;;3.90;99.90;;;;;;4997088;28;20451;-75
2023/04/27 06:00:09;;;;;;;9.50;3.15;;;4.00;99.90;;;;;;5000635;28;20038;-75
2023/04/27 06:02:34;;;;;;;5.55;3.10;;;4.10;99.90;;;;;;4999998;28;20487;-75
2023/04/27 06:05:00;;;;;;;5.73;2.70;;;4.20;99.90;;;;;;4997029;28;20049;-75
2023/04/27 06:07:26;;;;;;;5.27;2.60;;;4.20;99.90;;;;;;4999787;28;20368;-75
2023/04/27 06:12:19;;;;;;;13.38;3.85;;;4.40;99.90;;;;;;5022701;28;20470;-75
2023/04/27 06:14:44;;;;;;;9.43;3.43;;;4.50;99.90;;;;;;4994904;28;20123;-74
2023/04/27 06:17:10;;;;;;;6.37;2.67;;;4.50;99.90;;;;;;5003866;28;20525;-74
2023/04/27 06:19:36;;;;;;;5.53;2.43;;;4.60;99.90;;;;;;5020863;28;20044;-75
2023/04/27 06:22:02;;;;;;;7.37;2.50;;;4.70;99.90;;;;;;5021458;28;20367;-75
2023/04/27 06:24:28;;;;;;;;;;;4.80;99.90;;;;;;5017522;28;20483;-75
2023/04/27 06:26:53;;;;;;;6.60;2.15;;;4.90;99.90;;;;;;5018070;28;21199;-75
2023/04/27 06:29:19;;;;;;;6.33;3.03;;;4.90;99.90;;;;;;5020636;28;20141;-74
2023/04/27 06:31:52;;;;;;;5.73;2.10;;;5.00;99.90;;;;;;5025119;28;20091;-75
2023/04/27 06:34:17;;;;;;;3.60;2.05;;;5.10;99.90;;;;;;5022620;28;20494;-75
2023/04/27 06:36:43;;;;;;;4.53;2.57;;;5.20;99.90;;;;;;4997318;28;20330;-74
2023/04/27 06:39:09;;;;;;;8.90;2.60;;;5.20;99.90;;;;;;5019825;28;20049;-75
2023/04/27 06:41:34;;;;;;;5.77;2.60;;;5.30;99.90;;;;;;5022713;28;20060;-75
2023/04/27 06:44:00;;;;;;;4.33;2.60;;;5.40;99.90;;;;;;5021503;28;20045;-75
2023/04/27 06:46:26;;;;;;;3.53;2.13;;;5.50;99.90;;;;;;5018698;28;20356;-75
2023/04/27 06:48:52;;;;;;;3.08;1.52;;;5.60;99.90;;;;;;5012673;28;20062;-74
2023/04/27 06:51:17;;;;;;;3.50;2.53;;;5.70;99.90;;;;;;4997336;28;20049;-76
2023/04/27 06:53:45;;;;;;;3.80;2.00;;;5.80;99.90;;;;;;5014574;28;20053;-77
2023/04/27 06:56:11;;;;;;;5.60;2.05;;;5.80;99.90;;;;;;5018620;28;20102;-75
2023/04/27 06:58:37;;;;;;;6.07;1.90;;;5.90;99.90;;;;;;5002526;28;20037;-74
2023/04/27 07:01:03;;;;;;;6.10;1.90;;;6.00;99.90;;;;;;5017938;28;20287;-75
2023/04/27 07:03:30;;;;;;;4.22;1.83;;;6.10;99.90;;;;;;5021993;28;20052;-75
2023/04/27 07:05:56;;;;;;;3.15;1.55;;;6.20;99.90;;;;;;5002585;28;20046;-75
2023/04/27 07:08:21;;;;;;;6.20;1.65;;;6.30;99.90;;;;;;5009804;28;20099;-75
2023/04/27 07:10:47;;;;;;;3.50;1.73;;;6.30;99.90;;;;;;5016550;28;20441;-75
2023/04/27 07:13:13;;;;;;;7.37;1.83;;;6.40;99.90;;;;;;5008254;28;20171;-75
2023/04/27 07:15:38;;;;;;;5.83;1.83;;;6.50;99.90;;;;;;5011338;28;20037;-75
2023/04/27 07:18:04;;;;;;;6.70;2.40;;;6.50;99.90;;;;;;5005290;28;20111;-75
2023/04/27 07:20:29;;;;;;;9.07;2.10;;;6.60;99.90;;;;;;4994086;28;20272;-75
2023/04/27 07:22:55;;;;;;;5.73;2.60;;;6.70;99.90;;;;;;5016113;28;20157;-75
2023/04/27 07:25:21;;;;;;;4.50;1.77;;;6.80;99.90;;;;;;5012071;28;20129;-75
2023/04/27 07:27:47;;;;;;;6.50;1.90;;;6.90;99.90;;;;;;5011564;28;20045;-74
2023/04/27 07:30:13;;;;;;;3.03;1.80;;;7.00;99.90;;;;;;5021129;28;20462;-68
2023/04/27 07:32:42;;;;;;;5.68;2.20;;;7.00;99.90;;;;;;5023504;28;20037;-68
2023/04/27 07:35:08;;;;;;;5.57;1.70;;;7.10;99.90;;;;;;5015344;28;20053;-69
2023/04/27 07:37:36;;;;;;;4.30;1.50;;;7.20;99.90;;;;;;5017336;28;20076;-68
2023/04/27 07:40:04;;;;;;;4.22;2.40;;;7.30;99.90;;;;;;5019229;28;20053;-68
2023/04/27 07:42:30;;;;;;;4.53;1.73;;;7.40;99.90;;;;;;5017239;28;20053;-70
2023/04/27 07:44:56;;;;;;;3.73;1.40;;;7.50;99.90;;;;;;5009166;28;20041;-68
2023/04/27 07:47:22;;;;;;;5.35;1.60;;;7.50;99.90;;;;;;4991469;28;20127;-68
2023/04/27 07:49:48;;;;;;;;;;;7.60;99.90;;;;;;5013232;28;20118;-68
2023/04/27 07:52:13;;;;;;;2.30;1.40;;;7.70;99.90;;;;;;5011660;28;19929;-68
2023/04/27 07:54:39;;;;;;;4.67;1.33;;;7.70;99.90;;;;;;5015443;28;20077;-68
2023/04/27 07:57:12;;;;;;;4.93;1.30;;;7.80;99.90;;;;;;5019150;28;20033;-74
2023/04/27 07:59:38;;;;;;;2.30;1.17;;;7.90;99.90;;;;;;4998857;28;20470;-68
2023/04/27 08:02:04;;;;;;;3.80;1.50;;;7.90;99.90;;;;;;5016089;28;20052;-68
2023/04/27 08:04:30;;;;;;;3.53;1.67;;;8.00;99.90;;;;;;5010718;28;20356;-68
2023/04/27 08:06:55;;;;;;;2.83;1.33;;;8.10;99.90;;;;;;5001266;28;20048;-69
2023/04/27 08:09:21;;;;;;;2.23;1.33;;;8.20;99.90;;;;;;5004454;28;20049;-69
2023/04/27 08:11:47;;;;;;;3.70;1.73;;;8.20;99.90;;;;;;4999488;28;20127;-69
2023/04/27 08:14:12;;;;;;;3.57;1.67;;;8.30;99.90;;;;;;5014013;28;20414;-68
2023/04/27 08:16:42;;;;;;;3.20;1.60;;;8.40;99.90;;;;;;5009812;28;20042;-69
2023/04/27 08:19:09;;;;;;;4.78;1.77;;;8.50;99.90;;;;;;5012402;28;20042;-69
2023/04/27 08:21:36;;;;;;;3.38;1.15;;;8.50;99.90;;;;;;4998110;28;20549;-69
2023/04/27 08:24:04;;;;;;;2.58;1.65;;;8.60;99.90;;;;;;5006800;28;20423;-69
2023/04/27 08:26:30;;;;;;;4.32;1.65;;;8.60;99.90;;;;;;5017377;28;20553;-69
2023/04/27 08:28:56;;;;;;;4.63;1.40;;;8.70;99.90;;;;;;5016588;28;20268;-69
2023/04/27 08:31:23;;;;;;;1.73;1.20;;;8.80;99.90;;;;;;5014040;28;20057;-69
2023/04/27 08:33:49;;;;;;;4.60;1.83;;;8.80;99.90;;;;;;5021342;28;20777;-70
2023/04/27 08:36:15;;;;;;;5.38;1.80;;;8.90;99.90;;;;;;5017562;28;20048;-79
2023/04/27 08:38:41;;;;;;;2.90;1.50;;;8.90;99.90;;;;;;5008869;28;20120;-72
2023/04/27 08:41:06;;;;;;;3.13;1.70;;;9.00;99.90;;;;;;5004769;28;20399;-72
2023/04/27 08:43:35;;;;;;;2.90;1.47;;;9.10;99.90;;;;;;5014302;28;20899;-72
2023/04/27 08:46:01;;;;;;;5.47;1.90;;;9.20;99.90;;;;;;5016029;28;20038;-77
2023/04/27 08:48:27;;;;;;;8.50;3.85;;;9.30;99.90;;;;;;5014953;28;20054;-75
2023/04/27 08:50:56;;;;;;;12.05;5.55;;;9.40;99.90;;;;;;5017578;28;20045;-74
2023/04/27 08:53:22;;;;;;;4.22;2.53;;;9.50;99.90;;;;;;5020223;28;20049;-73
2023/04/27 08:55:49;;;;;;;5.43;1.90;;;9.50;99.90;;;;;;5023360;28;20052;-77
2023/04/27 08:58:15;;;;;;;4.90;2.45;;;9.60;99.90;;;;;;5023928;28;20038;-81
2023/04/27 09:00:42;;;;;;;5.80;2.65;;;9.70;99.90;;;;;;5024199;28;20084;-71
2023/04/27 09:03:26;;;;;;;4.45;1.85;;;9.80;99.90;;;;;;5003573;28;20052;-73
2023/04/27 09:05:51;;;;;;;3.55;1.63;;;9.90;99.90;;;;;;5012929;28;20038;-72
2023/04/27 09:08:17;;;;;;;3.90;2.23;;;10.00;99.90;;;;;;4999820;28;20044;-71
2023/04/27 09:10:48;;;;;;;5.07;1.93;;;10.10;99.90;;;;;;5023654;28;20053;-71
2023/04/27 09:13:14;;;;;;;5.22;1.95;;;10.20;99.90;;;;;;5021339;28;20081;-72
2023/04/27 09:15:44;;;;;;;5.78;2.60;;;10.30;99.90;;;;;;5021661;28;20052;-71
2023/04/27 09:18:21;;;;;;;3.60;2.22;;;10.40;99.90;;;;;;5016038;28;20061;-72
2023/04/27 09:20:49;;;;;;;6.13;2.00;;;10.40;99.90;;;;;;5025363;28;20042;-72
2023/04/27 09:23:33;;;;;;;5.00;2.17;;;10.50;99.90;;;;;;5018063;28;20084;-71
2023/04/27 09:26:02;;;;;;;7.75;2.22;;;10.60;99.90;;;;;;5020310;28;20252;-71
2023/04/27 09:28:33;;;;;;;9.82;2.30;;;10.70;99.70;;;;;;5005414;28;20443;-72
2023/04/27 09:31:00;;;;;;;5.30;2.40;;;10.80;99.90;;;;;;5023457;28;20053;-72
2023/04/27 09:33:28;;;;;;;5.28;2.30;;;10.90;99.90;;;;;;5022355;28;20449;-72
2023/04/27 09:35:56;;;;;;;8.55;2.03;;;11.00;99.90;;;;;;5024282;28;20095;-72
2023/04/27 09:38:22;;;;;;;6.20;2.53;;;11.10;99.40;;;;;;5021020;28;20303;-72
2023/04/27 09:40:49;;;;;;;9.93;3.50;;;11.20;98.40;;;;;;5018340;28;20077;-72
2023/04/27 09:43:15;;;;;;;12.98;4.50;;;11.30;97.40;;;;;;5024508;28;20093;-72
2023/04/27 09:45:41;;;;;;;10.07;4.03;;;11.40;97.90;;;;;;5022923;28;20045;-72
2023/04/27 09:48:08;;;;;;;10.90;5.13;;;11.50;97.90;;;;;;5020958;28;20478;-72
2023/04/27 09:50:38;;;;;;;18.90;6.35;;;11.60;98.10;;;;;;5023063;28;20056;-72
2023/04/27 09:53:11;;;;;;;16.98;6.50;;;11.70;94.60;;;;;;5024990;28;20502;-71
2023/04/27 09:56:00;;;;;;;16.58;5.80;;;11.70;95.50;;;;;;5017794;28;20041;-72
2023/04/27 09:58:44;;;;;;;10.68;4.88;;;11.80;94.60;;;;;;4996601;28;20042;-72
2023/04/27 10:01:19;;;;;;;16.90;4.85;;;11.80;94.70;;;;;;5027765;28;20527;-72
2023/04/27 10:03:45;;;;;;;13.88;5.18;;;11.80;92.30;;;;;;5025605;28;20136;-72
2023/04/27 10:06:33;;;;;;;7.97;3.60;;;11.80;93.20;;;;;;5015474;28;20435;-72
2023/04/27 10:09:02;;;;;;;10.27;4.30;;;11.90;92.00;;;;;;5016922;28;20148;-73
2023/04/27 10:11:39;;;;;;;10.02;3.60;;;11.90;92.90;;;;;;5014674;28;20497;-73
2023/04/27 10:14:07;;;;;;;5.68;2.53;;;12.00;92.70;;;;;;5020169;28;20395;-73
2023/04/27 10:16:53;;;;;;;5.97;3.17;;;12.00;92.50;;;;;;5022748;28;20561;-73
2023/04/27 10:19:20;;;;;;;11.20;4.28;;;12.10;92.30;;;;;;5014954;28;20120;-74
2023/04/27 10:21:59;;;;;;;6.18;3.50;;;12.20;92.20;;;;;;5006082;28;20590;-75
2023/04/27 10:24:51;;;;;;;8.10;2.90;;;12.20;91.00;;;;;;5006113;28;20553;-75
2023/04/27 10:27:19;;;;;;;5.95;3.25;;;12.40;91.00;;;;;;4997530;28;20406;-75
2023/04/27 10:29:46;;;;;;;8.27;3.10;;;12.40;90.60;;;;;;5011449;28;20053;-74
2023/04/27 10:32:22;;;;;;;7.07;2.95;;;12.30;90.40;;;;;;5019936;28;20442;-75
2023/04/27 10:34:49;;;;;;;6.38;3.22;;;12.30;88.90;;;;;;5020703;28;20049;-74
2023/04/27 10:37:18;;;;;;;6.30;3.00;;;12.30;89.80;;;;;;4990714;28;20148;-74
2023/04/27 10:39:45;;;;;;;4.60;2.70;;;12.20;90.30;;;;;;5008386;28;20061;-73
2023/04/27 10:42:11;;;;;;;7.35;3.05;;;12.30;89.70;;;;;;5012419;28;20088;-73
2023/04/27 10:44:37;;;;;;;8.45;2.78;;;12.30;88.20;;;;;;5025117;28;20049;-73
2023/04/27 10:47:15;;;;;;;7.53;2.90;;;12.40;89.40;;;;;;5018391;28;20406;-73
2023/04/27 10:49:41;;;;;;;3.25;2.28;;;12.30;89.80;;;;;;5014102;28;20204;-73
2023/04/27 10:52:07;;;;;;;;;;;12.40;88.80;;;;;;5022603;28;20053;-73
2023/04/27 10:54:34;;;;;;;6.72;2.58;;;12.60;89.80;;;;;;5011922;28;20003;-73
2023/04/27 10:57:09;;;;;;;6.25;2.63;;;12.70;90.40;;;;;;5022501;28;20533;-72
2023/04/27 10:59:50;;;;;;;6.18;2.95;;;12.80;90.50;;;;;;5015560;28;20519;-73
2023/04/27 11:02:16;;;;;;;6.10;2.50;;;12.80;89.30;;;;;;5000326;28;20499;-73
2023/04/27 11:04:42;;;;;;;5.85;2.63;;;12.90;89.80;;;;;;5013231;28;20137;-74
2023/04/27 11:07:09;;;;;;;7.20;2.87;;;12.80;86.90;;;;;;5013503;28;20531;-74
2023/04/27 11:09:41;;;;;;;7.57;2.90;;;12.70;86.70;;;;;;5015505;28;20083;-73
2023/04/27 11:12:10;;;;;;;5.10;2.97;;;12.60;85.50;;;;;;4999133;28;20051;-74
2023/04/27 11:14:36;;;;;;;5.18;2.80;;;12.60;85.70;;;;;;5019168;28;20045;-73
2023/04/27 11:17:05;;;;;;;7.18;3.80;;;12.60;85.50;;;;;;5013767;28;20549;-74
2023/04/27 11:19:31;;;;;;;6.63;2.75;;;12.50;84.50;;;;;;5019894;28;20049;-74
2023/04/27 11:22:05;;;;;;;5.35;3.35;;;12.40;83.40;;;;;;5012511;28;20107;-73
2023/04/27 11:24:32;;;;;;;4.45;2.65;;;12.50;84.20;;;;;;5009163;28;20057;-74
2023/04/27 11:26:58;;;;;;;6.70;3.25;;;12.50;84.30;;;;;;5018974;28;20042;-74
2023/04/27 11:29:24;;;;;;;9.63;2.85;;;12.70;83.40;;;;;;5000331;28;20127;-73
2023/04/27 11:31:50;;;;;;;5.83;2.90;;;12.70;84.00;;;;;;5016763;28;20121;-74
2023/04/27 11:34:17;;;;;;;6.88;3.25;;;12.70;81.70;;;;;;5011347;28;20053;-74
2023/04/27 11:36:43;;;;;;;7.88;3.50;;;12.60;82.30;;;;;;5015404;28;20054;-74
2023/04/27 11:39:19;;;;;;;5.43;2.90;;;12.60;83.80;;;;;;5012863;28;20032;-74
2023/04/27 11:41:45;;;;;;;9.07;2.93;;;12.70;84.00;;;;;;5003716;28;20131;-74
2023/04/27 11:44:11;;;;;;;6.87;2.73;;;12.80;84.40;;;;;;5016608;28;20327;-73
2023/04/27 11:46:37;;;;;;;8.73;3.10;;;12.90;84.00;;;;;;5012435;28;20491;-74
2023/04/27 11:49:05;;;;;;;4.47;2.55;;;13.00;85.00;;;;;;5010100;28;20073;-74
2023/04/27 11:51:35;;;;;;;5.00;2.83;;;13.00;83.70;;;;;;5002316;28;20049;-74
2023/04/27 11:54:02;;;;;;;7.32;2.90;;;13.00;82.30;;;;;;5006014;28;20046;-74
2023/04/27 11:56:41;;;;;;;4.97;2.40;;;12.80;81.50;;;;;;4999766;28;21337;-74
2023/04/27 11:59:21;;;;;;;5.75;2.97;;;12.70;81.40;;;;;;4993160;28;20041;-74
2023/04/27 12:01:47;;;;;;;4.20;2.20;;;12.70;82.10;;;;;;5009449;28;20080;-75
2023/04/27 12:04:13;;;;;;;6.75;2.55;;;12.70;83.70;;;;;;5016615;28;20049;-75
2023/04/27 12:06:39;;;;;;;4.37;2.73;;;12.70;83.70;;;;;;5018331;28;20060;-75
2023/04/27 12:11:39;;;;;;;6.10;3.08;;;12.70;83.60;;;;;;5059778;28;20052;-71
2023/04/27 12:14:06;;;;;;;4.22;2.35;;;12.70;83.80;;;;;;5053953;28;20486;-70
2023/04/27 12:16:31;;;;;;;6.57;2.85;;;12.70;83.10;;;;;;5049708;28;20059;-71
2023/04/27 12:18:57;;;;;;;5.10;2.30;;;12.60;82.40;;;;;;5051496;28;20052;-71
2023/04/27 12:21:22;;;;;;;5.80;2.37;;;12.60;82.90;;;;;;5057502;28;20142;-71
2023/04/27 12:23:48;;;;;;;5.50;2.73;;;12.70;82.60;;;;;;5061182;28;20102;-71
2023/04/27 12:26:14;;;;;;;6.57;2.73;;;12.70;83.00;;;;;;5064326;28;20051;-70
2023/04/27 12:28:39;;;;;;;6.23;3.07;;;12.60;82.60;;;;;;5050442;28;20417;-71
2023/04/27 12:31:05;;;;;;;7.67;3.07;;;12.70;82.60;;;;;;5047598;28;20458;-74
2023/04/27 12:33:31;;;;;;;8.27;2.92;;;12.70;82.20;;;;;;5047302;28;20052;-74
2023/04/27 12:35:56;;;;;;;7.83;3.07;;;12.70;82.20;;;;;;5049190;28;20298;-70
2023/04/27 12:38:22;;;;;;;4.63;2.63;;;12.70;81.30;;;;;;5049254;28;20356;-71
2023/04/27 12:40:48;;;;;;;5.50;2.97;;;12.70;80.50;;;;;;5051147;28;20041;-70
2023/04/27 12:43:14;;;;;;;4.50;2.85;;;12.80;80.80;;;;;;5025766;28;20049;-71
2023/04/27 12:45:40;;;;;;;6.78;3.30;;;12.90;80.30;;;;;;5047801;28;20080;-70
2023/04/27 12:48:06;;;;;;;7.75;3.35;;;12.80;79.70;;;;;;5046066;28;20068;-71
2023/04/27 12:50:32;;;;;;;8.85;3.40;;;12.80;79.70;;;;;;5050524;28;20080;-71
2023/04/27 12:52:58;;;;;;;8.07;2.70;;;12.90;78.40;;;;;;5045433;28;20048;-71
2023/04/27 12:55:24;;;;;;;5.30;2.78;;;12.90;79.30;;;;;;5053563;28;20109;-70
2023/04/27 12:57:50;;;;;;;3.63;2.15;;;12.90;80.10;;;;;;5047722;28;20037;-72